メルボルン の空港の天気 - METARとTAF

メルボルン空港 ( YMML / MEL ) - オーストラリア ビクトリア州、Melbourne Airport
飛行場実況気象(Metar)
観測時間08/23 02:30 AEST (08/22 16:30 UTC)
風向・風速北 3m/s
視程10km以上
天気現象
なし
気温2℃
湿度93%
気圧1025hPa
METARYMML 221630Z 36005KT CAVOK 02/01 Q1025 NOSIG
過去の天気等 Google飛行場航空写真 Wunderground天気予報

過去48時間のMETAR

飛行場予報(TAF)
発表時間: 8/22 21:10 AEST (8/22 11:10 UTC)
予報対象時間: 22日22時 AEST ~ 24日4時 AEST
風向・風速西 3m/s
視程10km以上
全天の4割程度の雲 雲底高度 1220m
23日2時 AEST から
風向・風速北北西 4m/s
視程10km以上
少しの雲 雲底高度 910m
23日12時 AEST から
風向・風速北 8m/s 瞬間風速 13m/s
視程10km以上
なし
23日18時 AEST から
風向・風速北 7m/s
視程10km以上
なし
24日2時 AEST から
風向・風速北 9m/s 瞬間風速 15m/s
視程10km以上
なし
TAF AMD YMML 221110Z 2212/2318 27006KT 9999 SCT040
FM221600 34008KT 9999 FEW030
FM230200 36015G25KT CAVOK
FM230800 36014KT CAVOK
FM231600 36018G30KT CAVOK